sensor_id;sensor_type;location;lat;lon;timestamp;P1;durP1;ratioP1;P2;durP2;ratioP2
59338;SDS011;45117;50.960;5.500;2023-11-21T00:01:14;33.65;;;13.02;;
59338;SDS011;45117;50.960;5.500;2023-11-21T00:03:42;34.38;;;12.30;;
59338;SDS011;45117;50.960;5.500;2023-11-21T00:06:12;34.78;;;12.52;;
59338;SDS011;45117;50.960;5.500;2023-11-21T00:08:39;37.95;;;13.05;;
59338;SDS011;45117;50.960;5.500;2023-11-21T00:11:06;33.40;;;12.27;;
59338;SDS011;45117;50.960;5.500;2023-11-21T00:13:33;32.45;;;12.15;;
59338;SDS011;45117;50.960;5.500;2023-11-21T00:16:00;29.38;;;12.60;;
59338;SDS011;45117;50.960;5.500;2023-11-21T00:18:27;29.42;;;12.18;;
59338;SDS011;45117;50.960;5.500;2023-11-21T00:20:53;32.58;;;12.32;;
59338;SDS011;45117;50.960;5.500;2023-11-21T00:23:21;33.53;;;11.77;;
59338;SDS011;45117;50.960;5.500;2023-11-21T00:25:48;29.95;;;11.95;;
59338;SDS011;45117;50.960;5.500;2023-11-21T00:28:14;33.33;;;12.32;;
59338;SDS011;45117;50.960;5.500;2023-11-21T00:30:41;32.88;;;12.13;;
59338;SDS011;45117;50.960;5.500;2023-11-21T00:33:07;31.80;;;11.45;;
59338;SDS011;45117;50.960;5.500;2023-11-21T00:35:34;36.97;;;13.48;;
59338;SDS011;45117;50.960;5.500;2023-11-21T00:38:00;35.03;;;13.07;;
59338;SDS011;45117;50.960;5.500;2023-11-21T00:40:29;38.17;;;12.65;;
59338;SDS011;45117;50.960;5.500;2023-11-21T00:42:56;39.30;;;13.75;;
59338;SDS011;45117;50.960;5.500;2023-11-21T00:45:22;36.28;;;13.73;;
59338;SDS011;45117;50.960;5.500;2023-11-21T00:47:49;38.70;;;13.85;;
59338;SDS011;45117;50.960;5.500;2023-11-21T00:50:16;38.00;;;13.15;;
59338;SDS011;45117;50.960;5.500;2023-11-21T00:52:42;36.72;;;13.38;;
59338;SDS011;45117;50.960;5.500;2023-11-21T00:55:09;35.50;;;13.48;;
59338;SDS011;45117;50.960;5.500;2023-11-21T00:57:38;43.53;;;13.35;;
59338;SDS011;45117;50.960;5.500;2023-11-21T01:00:05;37.95;;;14.15;;
59338;SDS011;45117;50.960;5.500;2023-11-21T01:02:34;46.20;;;14.25;;
59338;SDS011;45117;50.960;5.500;2023-11-21T01:05:01;44.58;;;15.45;;
59338;SDS011;45117;50.960;5.500;2023-11-21T01:07:28;50.25;;;15.18;;
59338;SDS011;45117;50.960;5.500;2023-11-21T01:09:55;47.33;;;15.50;;
59338;SDS011;45117;50.960;5.500;2023-11-21T01:12:21;44.72;;;14.90;;
59338;SDS011;45117;50.960;5.500;2023-11-21T01:14:51;43.25;;;15.75;;
59338;SDS011;45117;50.960;5.500;2023-11-21T01:17:17;47.20;;;15.63;;
59338;SDS011;45117;50.960;5.500;2023-11-21T01:19:44;47.80;;;16.10;;
59338;SDS011;45117;50.960;5.500;2023-11-21T01:22:11;48.97;;;16.88;;
59338;SDS011;45117;50.960;5.500;2023-11-21T01:24:38;52.90;;;17.58;;
59338;SDS011;45117;50.960;5.500;2023-11-21T01:27:04;51.03;;;17.25;;
59338;SDS011;45117;50.960;5.500;2023-11-21T01:29:32;48.78;;;17.38;;
59338;SDS011;45117;50.960;5.500;2023-11-21T01:32:01;54.15;;;18.20;;
59338;SDS011;45117;50.960;5.500;2023-11-21T01:34:28;59.65;;;18.38;;
59338;SDS011;45117;50.960;5.500;2023-11-21T01:36:55;49.28;;;17.27;;
59338;SDS011;45117;50.960;5.500;2023-11-21T01:39:22;51.38;;;18.17;;
59338;SDS011;45117;50.960;5.500;2023-11-21T01:41:49;55.45;;;18.30;;
59338;SDS011;45117;50.960;5.500;2023-11-21T01:44:17;49.75;;;18.13;;
59338;SDS011;45117;50.960;5.500;2023-11-21T01:46:44;57.22;;;19.90;;
59338;SDS011;45117;50.960;5.500;2023-11-21T01:49:13;60.83;;;18.85;;
59338;SDS011;45117;50.960;5.500;2023-11-21T01:51:43;54.28;;;19.08;;
59338;SDS011;45117;50.960;5.500;2023-11-21T01:54:12;57.78;;;19.52;;
59338;SDS011;45117;50.960;5.500;2023-11-21T01:56:39;61.72;;;20.25;;
59338;SDS011;45117;50.960;5.500;2023-11-21T01:59:06;60.95;;;19.85;;
59338;SDS011;45117;50.960;5.500;2023-11-21T02:01:33;63.45;;;19.60;;
59338;SDS011;45117;50.960;5.500;2023-11-21T02:03:59;58.65;;;20.30;;
59338;SDS011;45117;50.960;5.500;2023-11-21T02:06:28;58.83;;;20.00;;
59338;SDS011;45117;50.960;5.500;2023-11-21T02:08:56;57.28;;;19.58;;
59338;SDS011;45117;50.960;5.500;2023-11-21T02:11:24;60.85;;;20.30;;
59338;SDS011;45117;50.960;5.500;2023-11-21T02:13:52;62.63;;;20.85;;
59338;SDS011;45117;50.960;5.500;2023-11-21T02:16:19;62.03;;;20.98;;
59338;SDS011;45117;50.960;5.500;2023-11-21T02:18:47;60.80;;;20.40;;
59338;SDS011;45117;50.960;5.500;2023-11-21T02:21:14;63.63;;;20.52;;
59338;SDS011;45117;50.960;5.500;2023-11-21T02:23:43;61.35;;;20.80;;
59338;SDS011;45117;50.960;5.500;2023-11-21T02:26:11;59.13;;;19.17;;
59338;SDS011;45117;50.960;5.500;2023-11-21T02:28:39;53.83;;;19.17;;
59338;SDS011;45117;50.960;5.500;2023-11-21T02:31:05;67.38;;;19.70;;
59338;SDS011;45117;50.960;5.500;2023-11-21T02:33:32;54.55;;;18.70;;
59338;SDS011;45117;50.960;5.500;2023-11-21T02:35:59;55.97;;;18.38;;
59338;SDS011;45117;50.960;5.500;2023-11-21T02:38:26;54.17;;;17.95;;
59338;SDS011;45117;50.960;5.500;2023-11-21T02:40:54;57.53;;;18.65;;
59338;SDS011;45117;50.960;5.500;2023-11-21T02:43:20;54.55;;;17.85;;
59338;SDS011;45117;50.960;5.500;2023-11-21T02:45:47;53.53;;;17.80;;
59338;SDS011;45117;50.960;5.500;2023-11-21T02:48:13;52.95;;;17.42;;
59338;SDS011;45117;50.960;5.500;2023-11-21T02:50:40;52.60;;;17.77;;
59338;SDS011;45117;50.960;5.500;2023-11-21T02:53:08;52.97;;;18.33;;
59338;SDS011;45117;50.960;5.500;2023-11-21T02:55:35;59.90;;;18.67;;
59338;SDS011;45117;50.960;5.500;2023-11-21T02:58:03;61.42;;;19.05;;
59338;SDS011;45117;50.960;5.500;2023-11-21T03:00:31;53.67;;;18.13;;
59338;SDS011;45117;50.960;5.500;2023-11-21T03:02:57;60.80;;;18.85;;
59338;SDS011;45117;50.960;5.500;2023-11-21T03:05:24;62.63;;;19.95;;
59338;SDS011;45117;50.960;5.500;2023-11-21T03:07:54;60.47;;;19.10;;
59338;SDS011;45117;50.960;5.500;2023-11-21T03:10:20;62.45;;;19.40;;
59338;SDS011;45117;50.960;5.500;2023-11-21T03:12:47;63.15;;;18.88;;
59338;SDS011;45117;50.960;5.500;2023-11-21T03:15:15;69.18;;;20.45;;
59338;SDS011;45117;50.960;5.500;2023-11-21T03:17:41;64.70;;;19.42;;
59338;SDS011;45117;50.960;5.500;2023-11-21T03:20:08;63.95;;;19.85;;
59338;SDS011;45117;50.960;5.500;2023-11-21T03:22:38;67.95;;;19.33;;
59338;SDS011;45117;50.960;5.500;2023-11-21T03:25:05;68.43;;;19.17;;
59338;SDS011;45117;50.960;5.500;2023-11-21T03:27:35;70.45;;;19.70;;
59338;SDS011;45117;50.960;5.500;2023-11-21T03:30:02;67.47;;;19.65;;
59338;SDS011;45117;50.960;5.500;2023-11-21T03:32:33;76.47;;;20.95;;
59338;SDS011;45117;50.960;5.500;2023-11-21T03:35:00;63.45;;;19.10;;
59338;SDS011;45117;50.960;5.500;2023-11-21T03:37:27;71.28;;;20.38;;
59338;SDS011;45117;50.960;5.500;2023-11-21T03:39:54;74.43;;;20.25;;
59338;SDS011;45117;50.960;5.500;2023-11-21T03:42:21;77.72;;;20.33;;
59338;SDS011;45117;50.960;5.500;2023-11-21T03:44:47;83.80;;;20.77;;
59338;SDS011;45117;50.960;5.500;2023-11-21T03:47:14;76.80;;;19.77;;
59338;SDS011;45117;50.960;5.500;2023-11-21T03:49:42;75.68;;;19.85;;
59338;SDS011;45117;50.960;5.500;2023-11-21T03:52:08;76.15;;;20.45;;
59338;SDS011;45117;50.960;5.500;2023-11-21T03:54:35;78.95;;;21.05;;
59338;SDS011;45117;50.960;5.500;2023-11-21T03:57:02;80.45;;;19.35;;
59338;SDS011;45117;50.960;5.500;2023-11-21T03:59:29;69.20;;;20.17;;
59338;SDS011;45117;50.960;5.500;2023-11-21T04:01:56;67.88;;;19.77;;
59338;SDS011;45117;50.960;5.500;2023-11-21T04:04:23;68.72;;;19.45;;
59338;SDS011;45117;50.960;5.500;2023-11-21T04:06:51;61.33;;;17.65;;
59338;SDS011;45117;50.960;5.500;2023-11-21T04:09:18;61.78;;;18.48;;
59338;SDS011;45117;50.960;5.500;2023-11-21T04:11:45;60.92;;;17.45;;
59338;SDS011;45117;50.960;5.500;2023-11-21T04:14:11;64.50;;;18.23;;
59338;SDS011;45117;50.960;5.500;2023-11-21T04:16:38;70.18;;;18.40;;
59338;SDS011;45117;50.960;5.500;2023-11-21T04:19:04;67.13;;;17.77;;
59338;SDS011;45117;50.960;5.500;2023-11-21T04:21:31;74.93;;;19.23;;
59338;SDS011;45117;50.960;5.500;2023-11-21T04:23:59;70.97;;;18.45;;
59338;SDS011;45117;50.960;5.500;2023-11-21T04:26:26;67.50;;;18.45;;
59338;SDS011;45117;50.960;5.500;2023-11-21T04:28:52;65.10;;;17.23;;
59338;SDS011;45117;50.960;5.500;2023-11-21T04:31:19;63.30;;;18.15;;
59338;SDS011;45117;50.960;5.500;2023-11-21T04:33:46;68.93;;;18.50;;
59338;SDS011;45117;50.960;5.500;2023-11-21T04:36:12;68.50;;;18.88;;
59338;SDS011;45117;50.960;5.500;2023-11-21T04:38:39;70.35;;;18.10;;
59338;SDS011;45117;50.960;5.500;2023-11-21T04:41:07;62.67;;;17.75;;
59338;SDS011;45117;50.960;5.500;2023-11-21T04:43:34;66.20;;;18.02;;
59338;SDS011;45117;50.960;5.500;2023-11-21T04:46:00;61.78;;;17.85;;
59338;SDS011;45117;50.960;5.500;2023-11-21T04:48:28;62.65;;;16.90;;
59338;SDS011;45117;50.960;5.500;2023-11-21T04:50:54;66.03;;;17.90;;
59338;SDS011;45117;50.960;5.500;2023-11-21T04:53:21;60.38;;;16.88;;
59338;SDS011;45117;50.960;5.500;2023-11-21T04:55:47;57.05;;;17.15;;
59338;SDS011;45117;50.960;5.500;2023-11-21T04:58:15;60.95;;;16.48;;
59338;SDS011;45117;50.960;5.500;2023-11-21T05:00:42;55.53;;;16.85;;
59338;SDS011;45117;50.960;5.500;2023-11-21T05:03:09;54.13;;;16.30;;
59338;SDS011;45117;50.960;5.500;2023-11-21T05:05:35;58.83;;;16.27;;
59338;SDS011;45117;50.960;5.500;2023-11-21T05:08:02;60.22;;;15.75;;
59338;SDS011;45117;50.960;5.500;2023-11-21T05:10:30;68.65;;;16.63;;
59338;SDS011;45117;50.960;5.500;2023-11-21T05:12:56;65.22;;;15.48;;
59338;SDS011;45117;50.960;5.500;2023-11-21T05:15:24;65.10;;;14.88;;
59338;SDS011;45117;50.960;5.500;2023-11-21T05:17:52;70.50;;;17.40;;
59338;SDS011;45117;50.960;5.500;2023-11-21T05:20:20;68.15;;;15.77;;
59338;SDS011;45117;50.960;5.500;2023-11-21T05:22:46;72.05;;;16.35;;
59338;SDS011;45117;50.960;5.500;2023-11-21T05:25:14;68.35;;;15.85;;
59338;SDS011;45117;50.960;5.500;2023-11-21T05:27:43;64.18;;;15.93;;
59338;SDS011;45117;50.960;5.500;2023-11-21T05:30:10;66.20;;;16.40;;
59338;SDS011;45117;50.960;5.500;2023-11-21T05:32:39;108.88;;;17.00;;
59338;SDS011;45117;50.960;5.500;2023-11-21T05:35:07;65.32;;;16.50;;
59338;SDS011;45117;50.960;5.500;2023-11-21T05:37:37;83.03;;;16.42;;
59338;SDS011;45117;50.960;5.500;2023-11-21T05:40:04;64.53;;;16.67;;
59338;SDS011;45117;50.960;5.500;2023-11-21T05:42:32;126.97;;;19.02;;
59338;SDS011;45117;50.960;5.500;2023-11-21T05:44:58;69.53;;;16.95;;
59338;SDS011;45117;50.960;5.500;2023-11-21T05:47:34;69.40;;;17.33;;
59338;SDS011;45117;50.960;5.500;2023-11-21T05:50:04;118.07;;;17.25;;
59338;SDS011;45117;50.960;5.500;2023-11-21T05:52:31;136.38;;;17.30;;
59338;SDS011;45117;50.960;5.500;2023-11-21T05:54:58;121.68;;;17.98;;
59338;SDS011;45117;50.960;5.500;2023-11-21T05:57:25;81.15;;;16.25;;
59338;SDS011;45117;50.960;5.500;2023-11-21T05:59:51;77.07;;;17.02;;
59338;SDS011;45117;50.960;5.500;2023-11-21T06:02:18;103.93;;;16.23;;
59338;SDS011;45117;50.960;5.500;2023-11-21T06:04:44;72.20;;;16.30;;
59338;SDS011;45117;50.960;5.500;2023-11-21T06:07:12;63.55;;;15.23;;
59338;SDS011;45117;50.960;5.500;2023-11-21T06:09:39;84.22;;;16.85;;
59338;SDS011;45117;50.960;5.500;2023-11-21T06:12:06;64.72;;;15.35;;
59338;SDS011;45117;50.960;5.500;2023-11-21T06:14:33;69.65;;;15.95;;
59338;SDS011;45117;50.960;5.500;2023-11-21T06:17:00;100.38;;;17.52;;
59338;SDS011;45117;50.960;5.500;2023-11-21T06:19:27;144.23;;;18.08;;
59338;SDS011;45117;50.960;5.500;2023-11-21T06:21:53;75.63;;;16.52;;
59338;SDS011;45117;50.960;5.500;2023-11-21T06:24:21;92.43;;;17.45;;
59338;SDS011;45117;50.960;5.500;2023-11-21T06:26:48;78.95;;;17.80;;
59338;SDS011;45117;50.960;5.500;2023-11-21T06:29:14;140.23;;;18.20;;
59338;SDS011;45117;50.960;5.500;2023-11-21T06:31:41;83.93;;;16.10;;
59338;SDS011;45117;50.960;5.500;2023-11-21T06:34:08;64.13;;;15.93;;
59338;SDS011;45117;50.960;5.500;2023-11-21T06:36:35;64.93;;;15.60;;
59338;SDS011;45117;50.960;5.500;2023-11-21T06:39:02;119.72;;;17.33;;
59338;SDS011;45117;50.960;5.500;2023-11-21T06:41:33;72.57;;;16.17;;
59338;SDS011;45117;50.960;5.500;2023-11-21T06:43:59;103.22;;;16.95;;
59338;SDS011;45117;50.960;5.500;2023-11-21T06:46:26;148.20;;;19.17;;
59338;SDS011;45117;50.960;5.500;2023-11-21T06:48:53;88.25;;;17.05;;
59338;SDS011;45117;50.960;5.500;2023-11-21T06:51:19;74.20;;;17.38;;
59338;SDS011;45117;50.960;5.500;2023-11-21T06:53:46;90.07;;;18.25;;
59338;SDS011;45117;50.960;5.500;2023-11-21T06:56:16;62.10;;;15.95;;
59338;SDS011;45117;50.960;5.500;2023-11-21T06:58:44;65.45;;;16.50;;
59338;SDS011;45117;50.960;5.500;2023-11-21T07:01:11;67.63;;;15.90;;
59338;SDS011;45117;50.960;5.500;2023-11-21T07:03:39;64.95;;;16.02;;
59338;SDS011;45117;50.960;5.500;2023-11-21T07:06:06;62.25;;;15.30;;
59338;SDS011;45117;50.960;5.500;2023-11-21T07:08:33;66.47;;;17.00;;
59338;SDS011;45117;50.960;5.500;2023-11-21T07:11:00;61.45;;;15.85;;
59338;SDS011;45117;50.960;5.500;2023-11-21T07:13:28;77.82;;;17.73;;
59338;SDS011;45117;50.960;5.500;2023-11-21T07:15:55;80.90;;;17.63;;
59338;SDS011;45117;50.960;5.500;2023-11-21T07:18:22;65.60;;;15.98;;
59338;SDS011;45117;50.960;5.500;2023-11-21T07:20:49;81.72;;;16.60;;
59338;SDS011;45117;50.960;5.500;2023-11-21T07:23:16;108.70;;;16.63;;
59338;SDS011;45117;50.960;5.500;2023-11-21T07:25:43;77.35;;;17.17;;
59338;SDS011;45117;50.960;5.500;2023-11-21T07:28:09;83.85;;;17.30;;
59338;SDS011;45117;50.960;5.500;2023-11-21T07:30:36;92.25;;;19.17;;
59338;SDS011;45117;50.960;5.500;2023-11-21T07:33:04;79.57;;;18.65;;
59338;SDS011;45117;50.960;5.500;2023-11-21T07:35:31;90.53;;;18.42;;
59338;SDS011;45117;50.960;5.500;2023-11-21T07:37:58;74.68;;;18.67;;
59338;SDS011;45117;50.960;5.500;2023-11-21T07:40:24;80.45;;;19.08;;
59338;SDS011;45117;50.960;5.500;2023-11-21T07:42:52;70.53;;;18.27;;
59338;SDS011;45117;50.960;5.500;2023-11-21T07:45:21;77.80;;;18.92;;
59338;SDS011;45117;50.960;5.500;2023-11-21T07:47:48;82.30;;;18.85;;
59338;SDS011;45117;50.960;5.500;2023-11-21T07:50:16;86.85;;;18.95;;
59338;SDS011;45117;50.960;5.500;2023-11-21T07:52:43;86.68;;;19.70;;
59338;SDS011;45117;50.960;5.500;2023-11-21T07:55:09;80.75;;;19.70;;
59338;SDS011;45117;50.960;5.500;2023-11-21T07:57:36;90.43;;;20.77;;
59338;SDS011;45117;50.960;5.500;2023-11-21T08:00:03;93.70;;;20.77;;
59338;SDS011;45117;50.960;5.500;2023-11-21T08:02:31;82.80;;;20.60;;
59338;SDS011;45117;50.960;5.500;2023-11-21T08:04:59;93.20;;;20.92;;
59338;SDS011;45117;50.960;5.500;2023-11-21T08:07:27;88.00;;;20.90;;
59338;SDS011;45117;50.960;5.500;2023-11-21T08:09:55;96.95;;;21.27;;
59338;SDS011;45117;50.960;5.500;2023-11-21T08:12:21;100.43;;;22.05;;
59338;SDS011;45117;50.960;5.500;2023-11-21T08:14:49;91.40;;;20.73;;
59338;SDS011;45117;50.960;5.500;2023-11-21T08:17:15;88.15;;;20.65;;
59338;SDS011;45117;50.960;5.500;2023-11-21T08:19:42;97.85;;;21.35;;
59338;SDS011;45117;50.960;5.500;2023-11-21T08:22:09;92.25;;;21.38;;
59338;SDS011;45117;50.960;5.500;2023-11-21T08:24:37;105.47;;;21.33;;
59338;SDS011;45117;50.960;5.500;2023-11-21T08:27:04;105.72;;;21.02;;
59338;SDS011;45117;50.960;5.500;2023-11-21T08:29:32;89.60;;;21.60;;
59338;SDS011;45117;50.960;5.500;2023-11-21T08:31:59;89.05;;;20.98;;
59338;SDS011;45117;50.960;5.500;2023-11-21T08:34:26;89.22;;;20.88;;
59338;SDS011;45117;50.960;5.500;2023-11-21T08:36:53;92.32;;;21.10;;
59338;SDS011;45117;50.960;5.500;2023-11-21T08:39:20;97.68;;;22.13;;
59338;SDS011;45117;50.960;5.500;2023-11-21T08:41:50;97.70;;;21.60;;
59338;SDS011;45117;50.960;5.500;2023-11-21T08:44:17;96.68;;;22.50;;
59338;SDS011;45117;50.960;5.500;2023-11-21T08:46:43;93.20;;;21.35;;
59338;SDS011;45117;50.960;5.500;2023-11-21T08:49:11;99.13;;;21.63;;
59338;SDS011;45117;50.960;5.500;2023-11-21T08:51:39;98.00;;;22.00;;
59338;SDS011;45117;50.960;5.500;2023-11-21T08:54:06;90.05;;;20.70;;
59338;SDS011;45117;50.960;5.500;2023-11-21T08:56:33;86.85;;;20.88;;
59338;SDS011;45117;50.960;5.500;2023-11-21T08:59:01;84.43;;;20.70;;
59338;SDS011;45117;50.960;5.500;2023-11-21T09:01:28;85.88;;;21.35;;
59338;SDS011;45117;50.960;5.500;2023-11-21T09:03:56;89.70;;;21.42;;
59338;SDS011;45117;50.960;5.500;2023-11-21T09:06:22;87.85;;;21.38;;
59338;SDS011;45117;50.960;5.500;2023-11-21T09:08:49;91.13;;;22.80;;
59338;SDS011;45117;50.960;5.500;2023-11-21T09:11:16;84.32;;;21.42;;
59338;SDS011;45117;50.960;5.500;2023-11-21T09:13:43;85.68;;;21.33;;
59338;SDS011;45117;50.960;5.500;2023-11-21T09:16:13;87.50;;;20.25;;
59338;SDS011;45117;50.960;5.500;2023-11-21T09:18:40;86.93;;;21.13;;
59338;SDS011;45117;50.960;5.500;2023-11-21T09:21:07;87.22;;;21.30;;
59338;SDS011;45117;50.960;5.500;2023-11-21T09:23:33;83.95;;;20.42;;
59338;SDS011;45117;50.960;5.500;2023-11-21T09:26:00;80.00;;;19.48;;
59338;SDS011;45117;50.960;5.500;2023-11-21T09:28:26;73.20;;;18.40;;
59338;SDS011;45117;50.960;5.500;2023-11-21T09:30:53;77.97;;;19.88;;
59338;SDS011;45117;50.960;5.500;2023-11-21T09:33:21;70.28;;;18.45;;
59338;SDS011;45117;50.960;5.500;2023-11-21T09:35:50;74.50;;;18.42;;
59338;SDS011;45117;50.960;5.500;2023-11-21T09:38:17;75.25;;;19.48;;
59338;SDS011;45117;50.960;5.500;2023-11-21T09:40:44;71.68;;;18.42;;
59338;SDS011;45117;50.960;5.500;2023-11-21T09:43:13;71.20;;;18.73;;
59338;SDS011;45117;50.960;5.500;2023-11-21T09:45:44;72.70;;;19.63;;
59338;SDS011;45117;50.960;5.500;2023-11-21T09:48:12;80.22;;;20.35;;
59338;SDS011;45117;50.960;5.500;2023-11-21T09:50:40;75.53;;;18.13;;
59338;SDS011;45117;50.960;5.500;2023-11-21T09:53:09;75.03;;;20.25;;
59338;SDS011;45117;50.960;5.500;2023-11-21T09:55:40;68.18;;;19.63;;
59338;SDS011;45117;50.960;5.500;2023-11-21T09:58:09;72.90;;;19.02;;
59338;SDS011;45117;50.960;5.500;2023-11-21T10:00:37;79.00;;;19.90;;
59338;SDS011;45117;50.960;5.500;2023-11-21T10:03:06;67.00;;;18.88;;
59338;SDS011;45117;50.960;5.500;2023-11-21T10:05:33;70.30;;;19.60;;
59338;SDS011;45117;50.960;5.500;2023-11-21T10:08:01;76.60;;;19.63;;
59338;SDS011;45117;50.960;5.500;2023-11-21T10:10:31;72.50;;;19.45;;
59338;SDS011;45117;50.960;5.500;2023-11-21T10:13:00;69.80;;;19.98;;
59338;SDS011;45117;50.960;5.500;2023-11-21T10:15:31;70.35;;;19.35;;
59338;SDS011;45117;50.960;5.500;2023-11-21T10:17:59;72.53;;;20.42;;
59338;SDS011;45117;50.960;5.500;2023-11-21T10:20:28;69.32;;;19.95;;
59338;SDS011;45117;50.960;5.500;2023-11-21T10:22:55;66.32;;;19.38;;
59338;SDS011;45117;50.960;5.500;2023-11-21T10:25:24;68.70;;;19.13;;
59338;SDS011;45117;50.960;5.500;2023-11-21T10:27:56;68.90;;;19.13;;
59338;SDS011;45117;50.960;5.500;2023-11-21T10:30:27;71.75;;;20.55;;
59338;SDS011;45117;50.960;5.500;2023-11-21T10:32:58;64.25;;;19.60;;
59338;SDS011;45117;50.960;5.500;2023-11-21T10:35:27;67.80;;;19.77;;
59338;SDS011;45117;50.960;5.500;2023-11-21T10:38:04;69.90;;;20.52;;
59338;SDS011;45117;50.960;5.500;2023-11-21T10:40:34;60.03;;;18.67;;
59338;SDS011;45117;50.960;5.500;2023-11-21T10:43:05;61.05;;;18.52;;
59338;SDS011;45117;50.960;5.500;2023-11-21T10:45:33;63.50;;;19.30;;
59338;SDS011;45117;50.960;5.500;2023-11-21T10:48:04;62.05;;;19.23;;
59338;SDS011;45117;50.960;5.500;2023-11-21T10:50:32;59.92;;;19.60;;
59338;SDS011;45117;50.960;5.500;2023-11-21T10:53:00;63.05;;;19.65;;
59338;SDS011;45117;50.960;5.500;2023-11-21T10:55:27;62.20;;;20.20;;
59338;SDS011;45117;50.960;5.500;2023-11-21T10:57:55;64.38;;;19.73;;
59338;SDS011;45117;50.960;5.500;2023-11-21T11:00:24;61.00;;;18.05;;
59338;SDS011;45117;50.960;5.500;2023-11-21T11:02:53;55.33;;;17.42;;
59338;SDS011;45117;50.960;5.500;2023-11-21T11:05:21;60.30;;;18.77;;
59338;SDS011;45117;50.960;5.500;2023-11-21T11:07:50;59.67;;;18.77;;
59338;SDS011;45117;50.960;5.500;2023-11-21T11:10:19;57.05;;;18.20;;
59338;SDS011;45117;50.960;5.500;2023-11-21T11:12:48;55.97;;;18.40;;
59338;SDS011;45117;50.960;5.500;2023-11-21T11:15:16;51.35;;;16.88;;
59338;SDS011;45117;50.960;5.500;2023-11-21T11:17:43;48.40;;;16.67;;
59338;SDS011;45117;50.960;5.500;2023-11-21T11:20:12;47.55;;;17.05;;
59338;SDS011;45117;50.960;5.500;2023-11-21T11:22:42;48.90;;;17.50;;
59338;SDS011;45117;50.960;5.500;2023-11-21T11:25:19;48.20;;;15.88;;
59338;SDS011;45117;50.960;5.500;2023-11-21T11:27:57;46.60;;;15.57;;
59338;SDS011;45117;50.960;5.500;2023-11-21T11:30:36;43.72;;;15.27;;
59338;SDS011;45117;50.960;5.500;2023-11-21T11:33:12;45.42;;;16.08;;
59338;SDS011;45117;50.960;5.500;2023-11-21T11:35:51;37.85;;;13.95;;
59338;SDS011;45117;50.960;5.500;2023-11-21T11:38:21;34.78;;;13.98;;
59338;SDS011;45117;50.960;5.500;2023-11-21T11:40:51;36.17;;;13.68;;
59338;SDS011;45117;50.960;5.500;2023-11-21T11:43:24;38.30;;;14.85;;
59338;SDS011;45117;50.960;5.500;2023-11-21T11:45:53;40.72;;;15.05;;
59338;SDS011;45117;50.960;5.500;2023-11-21T11:48:22;35.25;;;14.13;;
59338;SDS011;45117;50.960;5.500;2023-11-21T11:51:02;37.42;;;13.60;;
59338;SDS011;45117;50.960;5.500;2023-11-21T11:53:32;36.80;;;13.65;;
59338;SDS011;45117;50.960;5.500;2023-11-21T11:58:46;36.95;;;13.23;;
59338;SDS011;45117;50.960;5.500;2023-11-21T12:01:15;31.10;;;12.27;;
59338;SDS011;45117;50.960;5.500;2023-11-21T12:03:43;35.13;;;12.82;;
59338;SDS011;45117;50.960;5.500;2023-11-21T12:06:09;30.50;;;12.18;;
59338;SDS011;45117;50.960;5.500;2023-11-21T12:08:37;29.65;;;12.00;;
59338;SDS011;45117;50.960;5.500;2023-11-21T12:11:04;26.50;;;11.63;;
59338;SDS011;45117;50.960;5.500;2023-11-21T12:13:31;27.77;;;12.10;;
59338;SDS011;45117;50.960;5.500;2023-11-21T12:15:58;30.35;;;12.55;;
59338;SDS011;45117;50.960;5.500;2023-11-21T12:18:26;29.15;;;12.75;;
59338;SDS011;45117;50.960;5.500;2023-11-21T12:20:53;33.97;;;13.50;;
59338;SDS011;45117;50.960;5.500;2023-11-21T12:23:20;33.13;;;13.60;;
59338;SDS011;45117;50.960;5.500;2023-11-21T12:25:47;33.17;;;13.98;;
59338;SDS011;45117;50.960;5.500;2023-11-21T12:28:13;32.05;;;13.65;;
59338;SDS011;45117;50.960;5.500;2023-11-21T12:30:40;34.80;;;15.45;;
59338;SDS011;45117;50.960;5.500;2023-11-21T12:33:06;35.08;;;14.90;;
59338;SDS011;45117;50.960;5.500;2023-11-21T12:35:35;39.15;;;15.00;;
59338;SDS011;45117;50.960;5.500;2023-11-21T12:38:03;34.42;;;15.07;;
59338;SDS011;45117;50.960;5.500;2023-11-21T12:40:30;35.67;;;15.30;;
59338;SDS011;45117;50.960;5.500;2023-11-21T12:42:57;36.85;;;14.45;;
59338;SDS011;45117;50.960;5.500;2023-11-21T12:45:26;40.33;;;16.02;;
59338;SDS011;45117;50.960;5.500;2023-11-21T12:47:54;42.47;;;16.25;;
59338;SDS011;45117;50.960;5.500;2023-11-21T12:50:25;35.60;;;14.43;;
59338;SDS011;45117;50.960;5.500;2023-11-21T12:52:59;38.67;;;14.93;;
59338;SDS011;45117;50.960;5.500;2023-11-21T12:55:29;39.17;;;15.45;;
59338;SDS011;45117;50.960;5.500;2023-11-21T12:57:56;39.83;;;16.52;;
59338;SDS011;45117;50.960;5.500;2023-11-21T13:00:27;38.42;;;15.25;;
59338;SDS011;45117;50.960;5.500;2023-11-21T13:03:02;33.10;;;14.10;;
59338;SDS011;45117;50.960;5.500;2023-11-21T13:05:29;29.88;;;13.18;;
59338;SDS011;45117;50.960;5.500;2023-11-21T13:07:59;26.65;;;12.77;;
59338;SDS011;45117;50.960;5.500;2023-11-21T13:10:28;31.77;;;13.82;;
59338;SDS011;45117;50.960;5.500;2023-11-21T13:12:56;29.27;;;13.80;;
59338;SDS011;45117;50.960;5.500;2023-11-21T13:15:25;32.60;;;13.77;;
59338;SDS011;45117;50.960;5.500;2023-11-21T13:17:52;31.00;;;13.55;;
59338;SDS011;45117;50.960;5.500;2023-11-21T13:20:21;31.90;;;12.68;;
59338;SDS011;45117;50.960;5.500;2023-11-21T13:22:49;30.80;;;13.82;;
59338;SDS011;45117;50.960;5.500;2023-11-21T13:25:20;26.95;;;13.05;;
59338;SDS011;45117;50.960;5.500;2023-11-21T13:27:47;29.75;;;13.65;;
59338;SDS011;45117;50.960;5.500;2023-11-21T13:30:14;29.00;;;12.98;;
59338;SDS011;45117;50.960;5.500;2023-11-21T13:32:42;25.95;;;12.98;;
59338;SDS011;45117;50.960;5.500;2023-11-21T13:35:09;27.33;;;12.73;;
59338;SDS011;45117;50.960;5.500;2023-11-21T13:37:48;31.48;;;14.27;;
59338;SDS011;45117;50.960;5.500;2023-11-21T13:40:22;30.38;;;13.60;;
59338;SDS011;45117;50.960;5.500;2023-11-21T13:42:52;27.02;;;13.52;;
59338;SDS011;45117;50.960;5.500;2023-11-21T13:45:24;26.92;;;11.98;;
59338;SDS011;45117;50.960;5.500;2023-11-21T13:47:53;22.42;;;11.27;;
59338;SDS011;45117;50.960;5.500;2023-11-21T13:50:22;26.15;;;12.02;;
59338;SDS011;45117;50.960;5.500;2023-11-21T13:52:54;24.10;;;11.85;;
59338;SDS011;45117;50.960;5.500;2023-11-21T13:55:22;21.15;;;11.48;;
59338;SDS011;45117;50.960;5.500;2023-11-21T13:57:50;21.75;;;11.13;;
59338;SDS011;45117;50.960;5.500;2023-11-21T14:00:17;20.33;;;10.65;;
59338;SDS011;45117;50.960;5.500;2023-11-21T14:03:06;21.80;;;11.07;;
59338;SDS011;45117;50.960;5.500;2023-11-21T14:05:44;21.13;;;10.65;;
59338;SDS011;45117;50.960;5.500;2023-11-21T14:08:12;21.92;;;10.55;;
59338;SDS011;45117;50.960;5.500;2023-11-21T14:10:43;22.77;;;11.30;;
59338;SDS011;45117;50.960;5.500;2023-11-21T14:13:14;21.30;;;10.48;;
59338;SDS011;45117;50.960;5.500;2023-11-21T14:15:41;21.27;;;10.10;;
59338;SDS011;45117;50.960;5.500;2023-11-21T14:18:11;22.80;;;10.32;;
59338;SDS011;45117;50.960;5.500;2023-11-21T14:20:41;21.95;;;9.98;;
59338;SDS011;45117;50.960;5.500;2023-11-21T14:23:09;23.67;;;10.07;;
59338;SDS011;45117;50.960;5.500;2023-11-21T14:25:36;24.55;;;10.68;;
59338;SDS011;45117;50.960;5.500;2023-11-21T14:28:05;19.13;;;9.13;;